CheckWX is a tool to help pilots better visualize weather data.  It is not intended as a substitute for an official pre-flight weather briefing.

21:04:46 UTC

CYGE METAR
Golden Airport
Golden, Canada
Current

46 mins ago

CYGE 232019Z VRB02KT 20SM SCT050TCU BKN120 BKN240 17/09 A3000 RMK TCU3AC2CI1 PRESFR SLP163 DENSITY ALT 3400FT
Observed
May-23 @ 20:19 UTC
Wind
  • Variable at 2 KTS
Visibility
20 SM
Flight Rules
VFR
Cloud Levels
  • Scattered at 5,000' AGL
  • Broken at 12,000' AGL
  • Broken at 24,000' AGL
Temperature
17°C / 63°F
Dewpoint
C / 48°F
Humidity
59%
Altimeter
30" Hg
Pressure
1015.92 hPa
Previous

2 hours ago

CYGE 231900Z 00000KT 20SM -RA FEW018 SCT065 BKN130 BKN150 14/09 A3005 RMK SC2SC2AC2AS1 SLP185 DENSITY ALT 2900FT
Observed
May-23 @ 19:00 UTC
Visibility
20 SM
Flight Rules
VFR
Conditions
Light Rain
Cloud Levels
  • Few at 1,800' AGL
  • Scattered at 6,500' AGL
  • Broken at 13,000' AGL
  • Broken at 15,000' AGL
Temperature
14°C / 57°F
Dewpoint
C / 48°F
Humidity
72%
Altimeter
30.05" Hg
Pressure
1017.62 hPa
Previous

3 hours ago

CYGE 231800Z 30005KT 20SM -RA FEW020 FEW045 BKN065 BKN110 OVC140 12/09 A3007 RMK SC1SC1SC5AC2AS1 SC TR SC TR SLP192 DENSITY ALT 2700FT
Observed
May-23 @ 18:00 UTC
Wind
  • 300° at 5 KTS
Visibility
20 SM
Flight Rules
VFR
Conditions
Light Rain
Cloud Levels
  • Few at 2,000' AGL
  • Few at 4,500' AGL
  • Broken at 6,500' AGL
  • Broken at 11,000' AGL
Temperature
12°C / 54°F
Dewpoint
C / 48°F
Humidity
82%
Altimeter
30.07" Hg
Pressure
1018.32 hPa